Metar z połowy godziny Komunikat METAR ze strony awiacja.imgw.pl Metar G30 EPKK METAR EPKK 240430Z 04003KT 3000 BR BKN046 M03/M04 Q1026 =